sensor_id;sensor_type;location;lat;lon;timestamp;P1;durP1;ratioP1;P2;durP2;ratioP2
45368;SDS011;51342;55.250;37.668;2024-03-08T00:02:03;9.23;;;4.57;;
45368;SDS011;51342;55.250;37.668;2024-03-08T00:04:34;12.33;;;5.40;;
45368;SDS011;51342;55.250;37.668;2024-03-08T00:07:06;13.93;;;5.60;;
45368;SDS011;51342;55.250;37.668;2024-03-08T00:09:38;11.77;;;4.97;;
45368;SDS011;51342;55.250;37.668;2024-03-08T00:12:09;10.67;;;4.80;;
45368;SDS011;51342;55.250;37.668;2024-03-08T00:14:40;9.97;;;4.80;;
45368;SDS011;51342;55.250;37.668;2024-03-08T00:17:12;9.77;;;5.03;;
45368;SDS011;51342;55.250;37.668;2024-03-08T00:19:43;10.73;;;5.00;;
45368;SDS011;51342;55.250;37.668;2024-03-08T00:22:15;14.63;;;5.23;;
45368;SDS011;51342;55.250;37.668;2024-03-08T00:24:47;12.77;;;7.10;;
45368;SDS011;51342;55.250;37.668;2024-03-08T00:27:21;11.23;;;5.53;;
45368;SDS011;51342;55.250;37.668;2024-03-08T00:29:52;10.20;;;5.20;;
45368;SDS011;51342;55.250;37.668;2024-03-08T00:32:24;13.30;;;5.03;;
45368;SDS011;51342;55.250;37.668;2024-03-08T00:34:55;12.10;;;6.07;;
45368;SDS011;51342;55.250;37.668;2024-03-08T00:37:27;13.07;;;5.63;;
45368;SDS011;51342;55.250;37.668;2024-03-08T00:39:58;10.23;;;5.27;;
45368;SDS011;51342;55.250;37.668;2024-03-08T00:42:30;11.73;;;5.80;;
45368;SDS011;51342;55.250;37.668;2024-03-08T00:45:01;11.67;;;5.70;;
45368;SDS011;51342;55.250;37.668;2024-03-08T00:47:33;13.03;;;5.33;;
45368;SDS011;51342;55.250;37.668;2024-03-08T00:50:05;12.20;;;5.23;;
45368;SDS011;51342;55.250;37.668;2024-03-08T00:52:37;10.77;;;5.43;;
45368;SDS011;51342;55.250;37.668;2024-03-08T00:55:08;12.33;;;5.73;;
45368;SDS011;51342;55.250;37.668;2024-03-08T00:57:41;11.40;;;5.47;;
45368;SDS011;51342;55.250;37.668;2024-03-08T01:00:12;13.30;;;5.33;;
45368;SDS011;51342;55.250;37.668;2024-03-08T01:02:44;14.57;;;7.07;;
45368;SDS011;51342;55.250;37.668;2024-03-08T01:05:15;12.73;;;5.63;;
45368;SDS011;51342;55.250;37.668;2024-03-08T01:07:47;12.57;;;6.23;;
45368;SDS011;51342;55.250;37.668;2024-03-08T01:10:18;11.00;;;5.50;;
45368;SDS011;51342;55.250;37.668;2024-03-08T01:12:52;12.03;;;5.47;;
45368;SDS011;51342;55.250;37.668;2024-03-08T01:15:25;14.50;;;6.30;;
45368;SDS011;51342;55.250;37.668;2024-03-08T01:17:56;12.10;;;5.80;;
45368;SDS011;51342;55.250;37.668;2024-03-08T01:20:28;13.80;;;6.47;;
45368;SDS011;51342;55.250;37.668;2024-03-08T01:22:59;12.93;;;5.70;;
45368;SDS011;51342;55.250;37.668;2024-03-08T01:25:31;14.00;;;5.90;;
45368;SDS011;51342;55.250;37.668;2024-03-08T01:28:03;10.33;;;5.57;;
45368;SDS011;51342;55.250;37.668;2024-03-08T01:30:35;11.53;;;5.70;;
45368;SDS011;51342;55.250;37.668;2024-03-08T01:33:08;13.73;;;6.10;;
45368;SDS011;51342;55.250;37.668;2024-03-08T01:35:39;12.70;;;6.20;;
45368;SDS011;51342;55.250;37.668;2024-03-08T01:38:12;10.20;;;4.93;;
45368;SDS011;51342;55.250;37.668;2024-03-08T01:40:43;13.50;;;6.07;;
45368;SDS011;51342;55.250;37.668;2024-03-08T01:43:25;9.67;;;5.33;;
45368;SDS011;51342;55.250;37.668;2024-03-08T01:46:00;10.30;;;5.23;;
45368;SDS011;51342;55.250;37.668;2024-03-08T01:48:32;11.70;;;6.37;;
45368;SDS011;51342;55.250;37.668;2024-03-08T01:51:04;11.20;;;5.83;;
45368;SDS011;51342;55.250;37.668;2024-03-08T01:53:36;10.17;;;5.07;;
45368;SDS011;51342;55.250;37.668;2024-03-08T01:56:08;10.57;;;5.70;;
45368;SDS011;51342;55.250;37.668;2024-03-08T01:58:43;14.33;;;5.57;;
45368;SDS011;51342;55.250;37.668;2024-03-08T02:01:14;12.43;;;5.63;;
45368;SDS011;51342;55.250;37.668;2024-03-08T02:03:46;11.70;;;5.40;;
45368;SDS011;51342;55.250;37.668;2024-03-08T02:06:17;11.50;;;5.70;;
45368;SDS011;51342;55.250;37.668;2024-03-08T02:08:49;10.80;;;5.93;;
45368;SDS011;51342;55.250;37.668;2024-03-08T02:11:20;11.57;;;5.70;;
45368;SDS011;51342;55.250;37.668;2024-03-08T02:13:52;11.73;;;5.40;;
45368;SDS011;51342;55.250;37.668;2024-03-08T02:16:23;9.77;;;4.97;;
45368;SDS011;51342;55.250;37.668;2024-03-08T02:18:55;10.73;;;5.97;;
45368;SDS011;51342;55.250;37.668;2024-03-08T02:21:27;10.93;;;5.70;;
45368;SDS011;51342;55.250;37.668;2024-03-08T02:23:59;9.70;;;5.17;;
45368;SDS011;51342;55.250;37.668;2024-03-08T02:26:30;12.73;;;5.27;;
45368;SDS011;51342;55.250;37.668;2024-03-08T02:29:02;11.73;;;5.20;;
45368;SDS011;51342;55.250;37.668;2024-03-08T02:31:33;10.30;;;4.73;;
45368;SDS011;51342;55.250;37.668;2024-03-08T02:34:05;9.73;;;5.10;;
45368;SDS011;51342;55.250;37.668;2024-03-08T02:36:36;10.57;;;5.07;;
45368;SDS011;51342;55.250;37.668;2024-03-08T02:39:07;12.70;;;5.13;;
45368;SDS011;51342;55.250;37.668;2024-03-08T02:41:41;9.07;;;5.33;;
45368;SDS011;51342;55.250;37.668;2024-03-08T02:44:13;11.70;;;5.10;;
45368;SDS011;51342;55.250;37.668;2024-03-08T02:46:45;9.03;;;4.50;;
45368;SDS011;51342;55.250;37.668;2024-03-08T02:49:17;10.43;;;4.93;;
45368;SDS011;51342;55.250;37.668;2024-03-08T02:51:48;10.30;;;4.53;;
45368;SDS011;51342;55.250;37.668;2024-03-08T02:54:20;10.10;;;4.80;;
45368;SDS011;51342;55.250;37.668;2024-03-08T02:56:51;11.83;;;4.50;;
45368;SDS011;51342;55.250;37.668;2024-03-08T02:59:23;11.90;;;5.37;;
45368;SDS011;51342;55.250;37.668;2024-03-08T03:01:54;6.73;;;3.87;;
45368;SDS011;51342;55.250;37.668;2024-03-08T03:04:26;13.13;;;5.27;;
45368;SDS011;51342;55.250;37.668;2024-03-08T03:06:58;10.33;;;4.77;;
45368;SDS011;51342;55.250;37.668;2024-03-08T03:09:30;11.67;;;5.10;;
45368;SDS011;51342;55.250;37.668;2024-03-08T03:12:03;8.83;;;4.87;;
45368;SDS011;51342;55.250;37.668;2024-03-08T03:14:35;12.63;;;5.57;;
45368;SDS011;51342;55.250;37.668;2024-03-08T03:17:09;11.03;;;5.80;;
45368;SDS011;51342;55.250;37.668;2024-03-08T03:19:40;10.70;;;5.27;;
45368;SDS011;51342;55.250;37.668;2024-03-08T03:22:13;11.13;;;5.10;;
45368;SDS011;51342;55.250;37.668;2024-03-08T03:24:46;9.17;;;5.30;;
45368;SDS011;51342;55.250;37.668;2024-03-08T03:27:18;7.73;;;3.83;;
45368;SDS011;51342;55.250;37.668;2024-03-08T03:29:51;9.20;;;4.43;;
45368;SDS011;51342;55.250;37.668;2024-03-08T03:32:23;10.27;;;3.80;;
45368;SDS011;51342;55.250;37.668;2024-03-08T03:34:54;10.87;;;3.97;;
45368;SDS011;51342;55.250;37.668;2024-03-08T03:37:25;8.83;;;3.60;;
45368;SDS011;51342;55.250;37.668;2024-03-08T03:39:57;10.13;;;4.33;;
45368;SDS011;51342;55.250;37.668;2024-03-08T03:42:28;6.80;;;3.80;;
45368;SDS011;51342;55.250;37.668;2024-03-08T03:45:00;7.50;;;3.80;;
45368;SDS011;51342;55.250;37.668;2024-03-08T03:47:31;6.67;;;4.10;;
45368;SDS011;51342;55.250;37.668;2024-03-08T03:50:02;10.90;;;3.87;;
45368;SDS011;51342;55.250;37.668;2024-03-08T03:52:35;7.43;;;3.70;;
45368;SDS011;51342;55.250;37.668;2024-03-08T03:55:06;8.63;;;3.37;;
45368;SDS011;51342;55.250;37.668;2024-03-08T03:57:39;8.27;;;3.87;;
45368;SDS011;51342;55.250;37.668;2024-03-08T04:00:11;7.17;;;3.47;;
45368;SDS011;51342;55.250;37.668;2024-03-08T04:02:46;8.83;;;3.50;;
45368;SDS011;51342;55.250;37.668;2024-03-08T04:05:17;9.57;;;3.50;;
45368;SDS011;51342;55.250;37.668;2024-03-08T04:07:49;6.73;;;3.43;;
45368;SDS011;51342;55.250;37.668;2024-03-08T04:10:20;9.97;;;3.93;;
45368;SDS011;51342;55.250;37.668;2024-03-08T04:12:52;7.43;;;3.67;;
45368;SDS011;51342;55.250;37.668;2024-03-08T04:15:23;8.77;;;3.90;;
45368;SDS011;51342;55.250;37.668;2024-03-08T04:17:55;9.53;;;3.67;;
45368;SDS011;51342;55.250;37.668;2024-03-08T04:20:28;5.97;;;3.37;;
45368;SDS011;51342;55.250;37.668;2024-03-08T04:22:59;7.10;;;3.20;;
45368;SDS011;51342;55.250;37.668;2024-03-08T04:25:30;6.87;;;3.23;;
45368;SDS011;51342;55.250;37.668;2024-03-08T04:28:02;5.77;;;3.27;;
45368;SDS011;51342;55.250;37.668;2024-03-08T04:30:33;8.47;;;3.67;;
45368;SDS011;51342;55.250;37.668;2024-03-08T04:33:06;8.90;;;3.13;;
45368;SDS011;51342;55.250;37.668;2024-03-08T04:35:37;8.37;;;3.67;;
45368;SDS011;51342;55.250;37.668;2024-03-08T04:38:09;6.23;;;3.07;;
45368;SDS011;51342;55.250;37.668;2024-03-08T04:40:41;8.17;;;4.03;;
45368;SDS011;51342;55.250;37.668;2024-03-08T04:43:12;7.47;;;3.37;;
45368;SDS011;51342;55.250;37.668;2024-03-08T04:45:45;6.63;;;3.40;;
45368;SDS011;51342;55.250;37.668;2024-03-08T04:48:16;5.50;;;2.97;;
45368;SDS011;51342;55.250;37.668;2024-03-08T04:50:48;10.37;;;4.50;;
45368;SDS011;51342;55.250;37.668;2024-03-08T04:53:20;7.73;;;3.33;;
45368;SDS011;51342;55.250;37.668;2024-03-08T04:55:51;10.90;;;4.87;;
45368;SDS011;51342;55.250;37.668;2024-03-08T04:58:22;8.13;;;3.93;;
45368;SDS011;51342;55.250;37.668;2024-03-08T05:00:54;8.77;;;4.20;;
45368;SDS011;51342;55.250;37.668;2024-03-08T05:03:26;9.23;;;4.30;;
45368;SDS011;51342;55.250;37.668;2024-03-08T05:05:58;7.77;;;4.07;;
45368;SDS011;51342;55.250;37.668;2024-03-08T05:08:29;8.50;;;4.63;;
45368;SDS011;51342;55.250;37.668;2024-03-08T05:11:01;11.60;;;5.13;;
45368;SDS011;51342;55.250;37.668;2024-03-08T05:13:34;9.27;;;4.83;;
45368;SDS011;51342;55.250;37.668;2024-03-08T05:16:06;10.70;;;4.80;;
45368;SDS011;51342;55.250;37.668;2024-03-08T05:18:38;8.90;;;4.60;;
45368;SDS011;51342;55.250;37.668;2024-03-08T05:21:09;8.90;;;4.17;;
45368;SDS011;51342;55.250;37.668;2024-03-08T05:23:41;7.77;;;3.80;;
45368;SDS011;51342;55.250;37.668;2024-03-08T05:26:12;7.90;;;4.00;;
45368;SDS011;51342;55.250;37.668;2024-03-08T05:28:45;9.57;;;4.17;;
45368;SDS011;51342;55.250;37.668;2024-03-08T05:31:21;7.00;;;4.40;;
45368;SDS011;51342;55.250;37.668;2024-03-08T05:33:55;10.43;;;5.33;;
45368;SDS011;51342;55.250;37.668;2024-03-08T05:36:27;10.03;;;6.60;;
45368;SDS011;51342;55.250;37.668;2024-03-08T05:38:58;11.90;;;5.47;;
45368;SDS011;51342;55.250;37.668;2024-03-08T05:41:30;11.03;;;5.60;;
45368;SDS011;51342;55.250;37.668;2024-03-08T05:44:01;10.93;;;4.87;;
45368;SDS011;51342;55.250;37.668;2024-03-08T05:46:34;10.30;;;4.97;;
45368;SDS011;51342;55.250;37.668;2024-03-08T05:49:06;8.47;;;4.67;;
45368;SDS011;51342;55.250;37.668;2024-03-08T05:51:40;8.83;;;4.90;;
45368;SDS011;51342;55.250;37.668;2024-03-08T05:54:12;11.27;;;5.47;;
45368;SDS011;51342;55.250;37.668;2024-03-08T05:56:44;10.17;;;5.10;;
45368;SDS011;51342;55.250;37.668;2024-03-08T05:59:15;10.00;;;5.10;;
45368;SDS011;51342;55.250;37.668;2024-03-08T06:01:49;10.00;;;5.37;;
45368;SDS011;51342;55.250;37.668;2024-03-08T06:04:20;11.20;;;5.27;;
45368;SDS011;51342;55.250;37.668;2024-03-08T06:06:52;11.87;;;5.63;;
45368;SDS011;51342;55.250;37.668;2024-03-08T06:09:26;9.80;;;4.63;;
45368;SDS011;51342;55.250;37.668;2024-03-08T06:11:58;10.37;;;5.73;;
45368;SDS011;51342;55.250;37.668;2024-03-08T06:14:29;11.47;;;6.00;;
45368;SDS011;51342;55.250;37.668;2024-03-08T06:17:00;10.27;;;5.53;;
45368;SDS011;51342;55.250;37.668;2024-03-08T06:19:32;8.60;;;5.40;;
45368;SDS011;51342;55.250;37.668;2024-03-08T06:22:05;7.83;;;4.70;;
45368;SDS011;51342;55.250;37.668;2024-03-08T06:24:36;11.83;;;5.33;;
45368;SDS011;51342;55.250;37.668;2024-03-08T06:27:09;11.00;;;5.23;;
45368;SDS011;51342;55.250;37.668;2024-03-08T06:29:40;9.37;;;5.30;;
45368;SDS011;51342;55.250;37.668;2024-03-08T06:32:12;10.60;;;5.20;;
45368;SDS011;51342;55.250;37.668;2024-03-08T06:34:45;8.27;;;4.63;;
45368;SDS011;51342;55.250;37.668;2024-03-08T06:37:17;9.43;;;5.23;;
45368;SDS011;51342;55.250;37.668;2024-03-08T06:39:52;8.77;;;5.40;;
45368;SDS011;51342;55.250;37.668;2024-03-08T06:42:26;8.63;;;4.63;;
45368;SDS011;51342;55.250;37.668;2024-03-08T06:44:59;10.30;;;4.87;;
45368;SDS011;51342;55.250;37.668;2024-03-08T06:47:35;7.97;;;4.67;;
45368;SDS011;51342;55.250;37.668;2024-03-08T06:50:08;9.20;;;4.80;;
45368;SDS011;51342;55.250;37.668;2024-03-08T06:52:39;7.43;;;4.70;;
45368;SDS011;51342;55.250;37.668;2024-03-08T06:55:11;9.03;;;4.67;;
45368;SDS011;51342;55.250;37.668;2024-03-08T06:57:42;11.53;;;5.67;;
45368;SDS011;51342;55.250;37.668;2024-03-08T07:00:14;9.43;;;5.30;;
45368;SDS011;51342;55.250;37.668;2024-03-08T07:02:49;9.77;;;5.60;;
45368;SDS011;51342;55.250;37.668;2024-03-08T07:05:20;10.80;;;5.17;;
45368;SDS011;51342;55.250;37.668;2024-03-08T07:07:52;9.00;;;5.23;;
45368;SDS011;51342;55.250;37.668;2024-03-08T07:10:24;11.10;;;5.80;;
45368;SDS011;51342;55.250;37.668;2024-03-08T07:12:56;12.77;;;5.90;;
45368;SDS011;51342;55.250;37.668;2024-03-08T07:15:27;12.07;;;6.27;;
45368;SDS011;51342;55.250;37.668;2024-03-08T07:17:59;13.63;;;5.47;;
45368;SDS011;51342;55.250;37.668;2024-03-08T07:20:30;9.70;;;5.50;;
45368;SDS011;51342;55.250;37.668;2024-03-08T07:23:02;9.60;;;5.03;;
45368;SDS011;51342;55.250;37.668;2024-03-08T07:25:34;10.80;;;5.40;;
45368;SDS011;51342;55.250;37.668;2024-03-08T07:28:06;13.00;;;6.10;;
45368;SDS011;51342;55.250;37.668;2024-03-08T07:30:37;11.00;;;5.83;;
45368;SDS011;51342;55.250;37.668;2024-03-08T07:33:15;10.07;;;5.10;;
45368;SDS011;51342;55.250;37.668;2024-03-08T07:35:46;11.10;;;5.47;;
45368;SDS011;51342;55.250;37.668;2024-03-08T07:38:18;11.00;;;5.80;;
45368;SDS011;51342;55.250;37.668;2024-03-08T07:40:52;14.23;;;6.97;;
45368;SDS011;51342;55.250;37.668;2024-03-08T07:43:23;12.43;;;5.90;;
45368;SDS011;51342;55.250;37.668;2024-03-08T07:45:54;10.80;;;5.70;;
45368;SDS011;51342;55.250;37.668;2024-03-08T07:48:26;11.80;;;6.20;;
45368;SDS011;51342;55.250;37.668;2024-03-08T07:50:57;14.40;;;6.97;;
45368;SDS011;51342;55.250;37.668;2024-03-08T07:53:29;11.70;;;6.50;;
45368;SDS011;51342;55.250;37.668;2024-03-08T07:56:00;13.93;;;7.17;;
45368;SDS011;51342;55.250;37.668;2024-03-08T07:58:32;11.77;;;6.60;;
45368;SDS011;51342;55.250;37.668;2024-03-08T08:01:03;11.67;;;6.13;;
45368;SDS011;51342;55.250;37.668;2024-03-08T08:03:35;10.70;;;6.07;;
45368;SDS011;51342;55.250;37.668;2024-03-08T08:06:08;9.73;;;5.97;;
45368;SDS011;51342;55.250;37.668;2024-03-08T08:08:44;10.63;;;6.10;;
45368;SDS011;51342;55.250;37.668;2024-03-08T08:11:15;13.27;;;6.37;;
45368;SDS011;51342;55.250;37.668;2024-03-08T08:13:47;13.53;;;6.87;;
45368;SDS011;51342;55.250;37.668;2024-03-08T08:16:18;11.03;;;6.17;;
45368;SDS011;51342;55.250;37.668;2024-03-08T08:18:50;11.43;;;5.97;;
45368;SDS011;51342;55.250;37.668;2024-03-08T08:21:22;12.57;;;6.43;;
45368;SDS011;51342;55.250;37.668;2024-03-08T08:23:53;11.30;;;6.63;;
45368;SDS011;51342;55.250;37.668;2024-03-08T08:26:25;11.70;;;6.50;;
45368;SDS011;51342;55.250;37.668;2024-03-08T08:28:57;12.27;;;6.17;;
45368;SDS011;51342;55.250;37.668;2024-03-08T08:31:28;12.00;;;5.93;;
45368;SDS011;51342;55.250;37.668;2024-03-08T08:34:00;10.27;;;5.80;;
45368;SDS011;51342;55.250;37.668;2024-03-08T08:36:31;9.97;;;5.50;;
45368;SDS011;51342;55.250;37.668;2024-03-08T08:39:03;10.17;;;5.37;;
45368;SDS011;51342;55.250;37.668;2024-03-08T08:41:34;9.90;;;6.17;;
45368;SDS011;51342;55.250;37.668;2024-03-08T08:44:07;11.87;;;5.70;;
45368;SDS011;51342;55.250;37.668;2024-03-08T08:46:40;8.87;;;5.73;;
45368;SDS011;51342;55.250;37.668;2024-03-08T08:49:12;9.77;;;5.47;;
45368;SDS011;51342;55.250;37.668;2024-03-08T08:51:49;10.80;;;5.23;;
45368;SDS011;51342;55.250;37.668;2024-03-08T08:54:21;9.83;;;5.83;;
45368;SDS011;51342;55.250;37.668;2024-03-08T08:56:53;10.27;;;5.90;;
45368;SDS011;51342;55.250;37.668;2024-03-08T08:59:24;8.53;;;5.70;;
45368;SDS011;51342;55.250;37.668;2024-03-08T09:01:56;10.57;;;6.17;;
45368;SDS011;51342;55.250;37.668;2024-03-08T09:04:27;10.73;;;5.50;;
45368;SDS011;51342;55.250;37.668;2024-03-08T09:07:00;8.67;;;5.57;;
45368;SDS011;51342;55.250;37.668;2024-03-08T09:09:32;11.93;;;6.47;;
45368;SDS011;51342;55.250;37.668;2024-03-08T09:12:04;9.23;;;5.53;;
45368;SDS011;51342;55.250;37.668;2024-03-08T09:14:35;11.37;;;6.00;;
45368;SDS011;51342;55.250;37.668;2024-03-08T09:17:07;9.80;;;5.43;;
45368;SDS011;51342;55.250;37.668;2024-03-08T09:19:39;9.77;;;5.63;;
45368;SDS011;51342;55.250;37.668;2024-03-08T09:22:10;10.93;;;5.97;;
45368;SDS011;51342;55.250;37.668;2024-03-08T09:24:42;9.37;;;5.57;;
45368;SDS011;51342;55.250;37.668;2024-03-08T09:27:16;9.80;;;6.10;;
45368;SDS011;51342;55.250;37.668;2024-03-08T09:29:49;8.97;;;5.53;;
45368;SDS011;51342;55.250;37.668;2024-03-08T09:32:20;10.47;;;5.73;;
45368;SDS011;51342;55.250;37.668;2024-03-08T09:34:53;8.53;;;5.13;;
45368;SDS011;51342;55.250;37.668;2024-03-08T09:37:26;8.80;;;5.80;;
45368;SDS011;51342;55.250;37.668;2024-03-08T09:39:58;10.83;;;6.17;;
45368;SDS011;51342;55.250;37.668;2024-03-08T09:42:30;13.50;;;6.00;;
45368;SDS011;51342;55.250;37.668;2024-03-08T09:45:07;9.87;;;5.97;;
45368;SDS011;51342;55.250;37.668;2024-03-08T09:47:46;9.27;;;6.33;;
45368;SDS011;51342;55.250;37.668;2024-03-08T09:50:19;10.03;;;6.00;;
45368;SDS011;51342;55.250;37.668;2024-03-08T09:52:51;12.83;;;6.23;;
45368;SDS011;51342;55.250;37.668;2024-03-08T09:55:22;10.30;;;6.27;;
45368;SDS011;51342;55.250;37.668;2024-03-08T09:57:56;11.27;;;5.73;;
45368;SDS011;51342;55.250;37.668;2024-03-08T10:00:50;13.17;;;6.67;;
45368;SDS011;51342;55.250;37.668;2024-03-08T10:03:21;9.80;;;6.53;;
45368;SDS011;51342;55.250;37.668;2024-03-08T10:05:53;9.93;;;6.47;;
45368;SDS011;51342;55.250;37.668;2024-03-08T10:08:27;9.40;;;5.83;;
45368;SDS011;51342;55.250;37.668;2024-03-08T10:11:02;9.87;;;6.23;;
45368;SDS011;51342;55.250;37.668;2024-03-08T10:13:33;10.63;;;6.07;;
45368;SDS011;51342;55.250;37.668;2024-03-08T10:16:06;9.03;;;5.27;;
45368;SDS011;51342;55.250;37.668;2024-03-08T10:18:37;9.57;;;5.77;;
45368;SDS011;51342;55.250;37.668;2024-03-08T10:21:09;9.30;;;6.07;;
45368;SDS011;51342;55.250;37.668;2024-03-08T10:23:46;8.73;;;5.55;;
45368;SDS011;51342;55.250;37.668;2024-03-08T10:26:19;10.30;;;5.60;;
45368;SDS011;51342;55.250;37.668;2024-03-08T10:28:52;10.37;;;6.10;;
45368;SDS011;51342;55.250;37.668;2024-03-08T10:31:24;11.87;;;6.27;;
45368;SDS011;51342;55.250;37.668;2024-03-08T10:33:59;8.83;;;5.93;;
45368;SDS011;51342;55.250;37.668;2024-03-08T10:36:32;9.83;;;6.07;;
45368;SDS011;51342;55.250;37.668;2024-03-08T10:39:20;10.60;;;6.33;;
45368;SDS011;51342;55.250;37.668;2024-03-08T10:41:56;10.93;;;6.70;;
45368;SDS011;51342;55.250;37.668;2024-03-08T10:44:32;11.07;;;6.57;;
45368;SDS011;51342;55.250;37.668;2024-03-08T10:47:30;8.87;;;5.33;;
45368;SDS011;51342;55.250;37.668;2024-03-08T10:50:19;8.97;;;5.67;;
45368;SDS011;51342;55.250;37.668;2024-03-08T10:52:56;10.23;;;5.97;;
45368;SDS011;51342;55.250;37.668;2024-03-08T10:55:28;7.93;;;5.60;;
45368;SDS011;51342;55.250;37.668;2024-03-08T10:58:05;11.63;;;7.10;;
45368;SDS011;51342;55.250;37.668;2024-03-08T11:00:37;11.73;;;6.50;;
45368;SDS011;51342;55.250;37.668;2024-03-08T11:03:56;10.47;;;6.80;;
45368;SDS011;51342;55.250;37.668;2024-03-08T11:06:16;10.53;;;6.60;;
45368;SDS011;51342;55.250;37.668;2024-03-08T11:08:49;9.13;;;5.80;;
45368;SDS011;51342;55.250;37.668;2024-03-08T11:11:30;9.82;;;6.28;;
45368;SDS011;51342;55.250;37.668;2024-03-08T11:14:03;12.18;;;6.70;;
45368;SDS011;51342;55.250;37.668;2024-03-08T11:21:43;11.20;;;6.67;;
45368;SDS011;51342;55.250;37.668;2024-03-08T11:24:15;9.90;;;6.23;;
45368;SDS011;51342;55.250;37.668;2024-03-08T11:26:47;10.30;;;5.70;;
45368;SDS011;51342;55.250;37.668;2024-03-08T11:32:14;9.50;;;5.47;;
45368;SDS011;51342;55.250;37.668;2024-03-08T11:34:48;10.77;;;5.93;;
45368;SDS011;51342;55.250;37.668;2024-03-08T11:37:21;7.93;;;5.43;;
45368;SDS011;51342;55.250;37.668;2024-03-08T11:39:54;10.97;;;6.63;;
45368;SDS011;51342;55.250;37.668;2024-03-08T11:42:35;12.40;;;7.40;;
45368;SDS011;51342;55.250;37.668;2024-03-08T11:45:08;8.67;;;6.20;;
45368;SDS011;51342;55.250;37.668;2024-03-08T11:47:45;11.10;;;6.57;;
45368;SDS011;51342;55.250;37.668;2024-03-08T11:50:17;11.10;;;6.37;;
45368;SDS011;51342;55.250;37.668;2024-03-08T11:52:51;10.33;;;6.80;;
45368;SDS011;51342;55.250;37.668;2024-03-08T11:55:23;8.93;;;6.13;;
45368;SDS011;51342;55.250;37.668;2024-03-08T11:58:05;11.97;;;6.60;;
45368;SDS011;51342;55.250;37.668;2024-03-08T12:00:39;10.93;;;6.67;;
45368;SDS011;51342;55.250;37.668;2024-03-08T12:03:13;9.73;;;6.47;;
45368;SDS011;51342;55.250;37.668;2024-03-08T12:05:45;9.60;;;5.70;;
45368;SDS011;51342;55.250;37.668;2024-03-08T12:08:18;11.67;;;6.47;;
45368;SDS011;51342;55.250;37.668;2024-03-08T12:10:49;12.60;;;7.30;;
45368;SDS011;51342;55.250;37.668;2024-03-08T12:13:22;12.10;;;7.00;;
45368;SDS011;51342;55.250;37.668;2024-03-08T12:15:57;12.53;;;6.83;;
45368;SDS011;51342;55.250;37.668;2024-03-08T12:18:33;11.23;;;7.00;;
45368;SDS011;51342;55.250;37.668;2024-03-08T12:21:12;11.73;;;6.93;;
45368;SDS011;51342;55.250;37.668;2024-03-08T12:26:40;10.47;;;6.70;;
45368;SDS011;51342;55.250;37.668;2024-03-08T12:29:16;10.60;;;6.60;;
45368;SDS011;51342;55.250;37.668;2024-03-08T12:31:59;10.53;;;6.90;;
45368;SDS011;51342;55.250;37.668;2024-03-08T12:34:31;13.67;;;8.17;;
45368;SDS011;51342;55.250;37.668;2024-03-08T12:37:03;11.53;;;6.60;;
45368;SDS011;51342;55.250;37.668;2024-03-08T12:39:40;10.73;;;7.00;;
45368;SDS011;51342;55.250;37.668;2024-03-08T12:42:11;12.70;;;7.60;;
45368;SDS011;51342;55.250;37.668;2024-03-08T12:44:45;12.40;;;7.67;;
45368;SDS011;51342;55.250;37.668;2024-03-08T12:47:17;12.97;;;7.67;;
45368;SDS011;51342;55.250;37.668;2024-03-08T12:49:49;13.13;;;8.00;;
45368;SDS011;51342;55.250;37.668;2024-03-08T12:52:21;14.37;;;8.03;;
45368;SDS011;51342;55.250;37.668;2024-03-08T12:54:52;15.17;;;7.40;;
45368;SDS011;51342;55.250;37.668;2024-03-08T12:57:23;10.10;;;7.10;;
45368;SDS011;51342;55.250;37.668;2024-03-08T12:59:57;13.27;;;7.50;;
45368;SDS011;51342;55.250;37.668;2024-03-08T13:02:41;13.23;;;7.20;;
45368;SDS011;51342;55.250;37.668;2024-03-08T13:05:13;14.23;;;8.10;;
45368;SDS011;51342;55.250;37.668;2024-03-08T13:07:47;12.27;;;7.33;;
45368;SDS011;51342;55.250;37.668;2024-03-08T13:10:19;11.70;;;7.23;;
45368;SDS011;51342;55.250;37.668;2024-03-08T13:12:51;14.20;;;7.43;;
45368;SDS011;51342;55.250;37.668;2024-03-08T13:15:24;12.27;;;7.37;;
45368;SDS011;51342;55.250;37.668;2024-03-08T13:17:55;11.70;;;6.97;;
45368;SDS011;51342;55.250;37.668;2024-03-08T13:20:31;11.10;;;6.13;;
45368;SDS011;51342;55.250;37.668;2024-03-08T13:23:03;9.57;;;5.70;;
45368;SDS011;51342;55.250;37.668;2024-03-08T13:25:35;9.30;;;5.13;;
45368;SDS011;51342;55.250;37.668;2024-03-08T13:28:09;10.83;;;5.70;;
45368;SDS011;51342;55.250;37.668;2024-03-08T13:30:41;11.43;;;6.37;;
45368;SDS011;51342;55.250;37.668;2024-03-08T13:33:15;10.57;;;5.77;;
45368;SDS011;51342;55.250;37.668;2024-03-08T13:35:48;10.03;;;5.50;;
45368;SDS011;51342;55.250;37.668;2024-03-08T13:38:19;9.53;;;5.40;;
45368;SDS011;51342;55.250;37.668;2024-03-08T13:40:51;9.70;;;5.93;;
45368;SDS011;51342;55.250;37.668;2024-03-08T13:43:22;10.20;;;5.97;;
45368;SDS011;51342;55.250;37.668;2024-03-08T13:45:54;9.60;;;5.43;;
45368;SDS011;51342;55.250;37.668;2024-03-08T13:48:26;9.23;;;5.40;;
45368;SDS011;51342;55.250;37.668;2024-03-08T13:50:57;10.07;;;5.40;;
45368;SDS011;51342;55.250;37.668;2024-03-08T13:53:29;9.07;;;5.53;;
45368;SDS011;51342;55.250;37.668;2024-03-08T13:56:03;10.70;;;6.20;;
45368;SDS011;51342;55.250;37.668;2024-03-08T13:58:36;9.77;;;5.70;;
45368;SDS011;51342;55.250;37.668;2024-03-08T14:01:09;10.97;;;6.03;;
45368;SDS011;51342;55.250;37.668;2024-03-08T14:03:42;8.03;;;5.33;;
45368;SDS011;51342;55.250;37.668;2024-03-08T14:06:14;8.13;;;5.17;;
45368;SDS011;51342;55.250;37.668;2024-03-08T14:08:45;11.40;;;6.13;;
45368;SDS011;51342;55.250;37.668;2024-03-08T14:11:16;11.53;;;6.07;;
45368;SDS011;51342;55.250;37.668;2024-03-08T14:13:49;9.60;;;6.43;;
45368;SDS011;51342;55.250;37.668;2024-03-08T14:16:21;10.00;;;6.23;;
45368;SDS011;51342;55.250;37.668;2024-03-08T14:18:53;8.17;;;5.70;;
45368;SDS011;51342;55.250;37.668;2024-03-08T14:21:24;10.37;;;6.17;;
45368;SDS011;51342;55.250;37.668;2024-03-08T14:23:56;8.60;;;5.53;;
45368;SDS011;51342;55.250;37.668;2024-03-08T14:26:28;9.17;;;6.27;;
45368;SDS011;51342;55.250;37.668;2024-03-08T14:28:59;9.83;;;6.33;;
45368;SDS011;51342;55.250;37.668;2024-03-08T14:31:31;10.60;;;5.80;;
45368;SDS011;51342;55.250;37.668;2024-03-08T14:34:02;11.97;;;5.97;;
45368;SDS011;51342;55.250;37.668;2024-03-08T14:36:34;9.57;;;5.97;;
45368;SDS011;51342;55.250;37.668;2024-03-08T14:39:06;12.57;;;6.57;;
45368;SDS011;51342;55.250;37.668;2024-03-08T14:41:38;12.43;;;5.80;;
45368;SDS011;51342;55.250;37.668;2024-03-08T14:44:09;12.27;;;5.60;;
45368;SDS011;51342;55.250;37.668;2024-03-08T14:46:41;9.50;;;5.47;;
45368;SDS011;51342;55.250;37.668;2024-03-08T14:49:14;10.00;;;5.73;;
45368;SDS011;51342;55.250;37.668;2024-03-08T14:51:45;9.07;;;4.93;;
45368;SDS011;51342;55.250;37.668;2024-03-08T14:54:16;10.67;;;5.90;;
45368;SDS011;51342;55.250;37.668;2024-03-08T14:56:53;8.67;;;5.30;;
45368;SDS011;51342;55.250;37.668;2024-03-08T14:59:27;8.47;;;4.93;;
45368;SDS011;51342;55.250;37.668;2024-03-08T15:02:11;9.07;;;4.97;;
45368;SDS011;51342;55.250;37.668;2024-03-08T15:04:42;9.13;;;5.17;;
45368;SDS011;51342;55.250;37.668;2024-03-08T15:07:13;9.07;;;5.37;;
45368;SDS011;51342;55.250;37.668;2024-03-08T15:09:45;9.50;;;5.03;;